createdAt,value
2018-06-28T00:01:49.244Z,7.13
2018-06-28T00:04:17.995Z,7.30
2018-06-28T00:06:47.194Z,6.90
2018-06-28T00:09:15.927Z,6.73
2018-06-28T00:11:44.747Z,6.67
2018-06-28T00:14:13.438Z,6.10
2018-06-28T00:16:42.570Z,5.10
2018-06-28T00:19:11.468Z,5.20
2018-06-28T00:21:40.243Z,5.10
2018-06-28T00:24:09.007Z,4.97
2018-06-28T00:26:37.696Z,5.10
2018-06-28T00:29:06.456Z,6.20
2018-06-28T00:31:35.437Z,5.33
2018-06-28T00:34:04.335Z,6.30
2018-06-28T00:36:33.272Z,4.13
2018-06-28T00:39:02.025Z,3.80
2018-06-28T00:41:30.770Z,4.50
2018-06-28T00:43:59.569Z,9.27
2018-06-28T00:46:28.393Z,5.03
2018-06-28T00:48:57.208Z,5.10
2018-06-28T00:51:26.000Z,4.60
2018-06-28T00:53:54.796Z,4.90
2018-06-28T00:56:23.651Z,10.37
2018-06-28T00:58:52.435Z,8.33
2018-06-28T01:01:21.163Z,4.30
2018-06-28T01:03:49.847Z,3.50
2018-06-28T01:06:18.631Z,4.30
2018-06-28T01:08:47.423Z,4.13
2018-06-28T01:11:16.150Z,3.30
2018-06-28T01:13:44.955Z,4.30
2018-06-28T01:16:13.663Z,4.20
2018-06-28T01:18:42.413Z,4.13
2018-06-28T01:21:11.539Z,4.90
2018-06-28T01:23:40.275Z,5.00
2018-06-28T01:26:09.122Z,6.43
2018-06-28T01:28:38.235Z,8.20
2018-06-28T01:31:06.930Z,10.73
2018-06-28T01:33:35.860Z,11.47
2018-06-28T01:36:04.816Z,11.30
2018-06-28T01:38:33.604Z,8.67
2018-06-28T01:41:02.299Z,7.67
2018-06-28T01:43:43.054Z,6.70
2018-06-28T01:46:11.844Z,5.60
2018-06-28T01:48:40.761Z,6.00
2018-06-28T01:51:09.519Z,5.70
2018-06-28T01:53:38.250Z,5.47
2018-06-28T01:56:07.143Z,4.97
2018-06-28T01:58:36.311Z,4.80
2018-06-28T02:01:05.098Z,5.13
2018-06-28T02:03:33.899Z,5.00
2018-06-28T02:06:02.635Z,4.87
2018-06-28T02:08:31.362Z,4.20
2018-06-28T02:11:00.068Z,4.00
2018-06-28T02:13:28.784Z,3.90
2018-06-28T02:15:57.491Z,3.73
2018-06-28T02:18:26.195Z,3.93
2018-06-28T02:20:54.947Z,3.80
2018-06-28T02:23:23.848Z,4.07
2018-06-28T02:25:52.775Z,4.57
2018-06-28T02:28:21.680Z,4.57
2018-06-28T02:30:50.555Z,4.73
2018-06-28T02:33:19.357Z,3.93
2018-06-28T02:35:48.172Z,3.87
2018-06-28T02:38:16.887Z,4.00
2018-06-28T02:40:45.677Z,4.20
2018-06-28T02:43:14.405Z,4.20
2018-06-28T02:45:43.151Z,4.30
2018-06-28T02:48:11.845Z,4.20
2018-06-28T02:50:40.597Z,4.20
2018-06-28T02:53:09.336Z,3.67
2018-06-28T02:55:38.092Z,4.70
2018-06-28T02:58:07.138Z,4.23
2018-06-28T03:00:35.914Z,4.23
2018-06-28T03:03:04.739Z,4.40
2018-06-28T03:05:33.466Z,4.30
2018-06-28T03:08:02.202Z,4.50
2018-06-28T03:10:30.943Z,4.80
2018-06-28T03:12:59.683Z,4.47
2018-06-28T03:15:28.415Z,4.27
2018-06-28T03:17:57.174Z,4.33
2018-06-28T03:20:25.912Z,4.30
2018-06-28T03:22:54.614Z,4.70
2018-06-28T03:25:23.298Z,4.23
2018-06-28T03:27:52.091Z,4.33
2018-06-28T03:30:20.792Z,4.93
2018-06-28T03:32:49.471Z,4.70
2018-06-28T03:35:18.185Z,5.27
2018-06-28T03:37:46.980Z,9.47
2018-06-28T03:40:15.874Z,4.50
2018-06-28T03:42:44.940Z,5.80
2018-06-28T03:45:13.663Z,4.37
2018-06-28T03:47:42.362Z,6.57
2018-06-28T03:50:11.073Z,5.27
2018-06-28T03:52:39.764Z,7.27
2018-06-28T03:55:08.466Z,4.57
2018-06-28T03:57:37.205Z,4.53
2018-06-28T04:00:06.394Z,5.07
2018-06-28T04:02:35.130Z,5.90
2018-06-28T04:05:03.934Z,6.83
2018-06-28T04:07:32.659Z,5.63
2018-06-28T04:10:01.398Z,3.63
2018-06-28T04:12:30.119Z,3.93
2018-06-28T04:14:58.925Z,4.90
2018-06-28T04:17:27.669Z,6.00
2018-06-28T04:19:56.475Z,4.87
2018-06-28T04:22:29.658Z,5.13
2018-06-28T04:24:58.903Z,4.73
2018-06-28T04:27:28.493Z,5.13
2018-06-28T04:29:57.824Z,4.20
2018-06-28T04:32:26.613Z,4.50
2018-06-28T04:34:55.465Z,4.40
2018-06-28T04:37:24.223Z,4.20
2018-06-28T04:39:52.942Z,4.20
2018-06-28T04:42:21.634Z,4.70
2018-06-28T04:44:50.330Z,4.53
2018-06-28T04:47:19.070Z,5.00
2018-06-28T04:49:47.800Z,4.57
2018-06-28T04:52:16.685Z,4.70
2018-06-28T04:54:45.381Z,4.67
2018-06-28T04:57:14.144Z,3.93
2018-06-28T04:59:42.863Z,3.97
2018-06-28T05:02:11.559Z,4.00
2018-06-28T05:04:40.345Z,3.37
2018-06-28T05:07:09.127Z,3.47
2018-06-28T05:09:37.998Z,3.43
2018-06-28T05:12:06.723Z,3.93
2018-06-28T05:14:35.408Z,4.00
2018-06-28T05:17:04.172Z,4.43
2018-06-28T05:19:33.021Z,3.93
2018-06-28T05:22:02.101Z,4.10
2018-06-28T05:24:31.236Z,4.20
2018-06-28T05:27:00.316Z,3.40
2018-06-28T05:29:29.108Z,3.70
2018-06-28T05:31:57.794Z,3.13
2018-06-28T05:34:26.546Z,4.13
2018-06-28T05:36:55.275Z,4.97
2018-06-28T05:39:23.988Z,5.17
2018-06-28T05:41:52.731Z,5.30
2018-06-28T05:44:21.426Z,4.73
2018-06-28T05:46:50.147Z,4.73
2018-06-28T05:49:18.850Z,4.60
2018-06-28T05:51:47.591Z,4.73
2018-06-28T05:54:16.375Z,4.67
2018-06-28T05:56:45.460Z,5.70
2018-06-28T05:59:14.146Z,5.93
2018-06-28T06:01:43.097Z,5.00
2018-06-28T06:04:11.812Z,4.73
2018-06-28T06:06:40.563Z,5.60
2018-06-28T06:09:10.667Z,5.33
2018-06-28T06:11:39.414Z,5.67
2018-06-28T06:14:08.788Z,5.70
2018-06-28T06:16:37.798Z,6.63
2018-06-28T06:19:06.723Z,6.13
2018-06-28T06:21:35.640Z,5.57
2018-06-28T06:24:04.375Z,5.87
2018-06-28T06:26:33.102Z,6.13
2018-06-28T06:29:01.824Z,17.70
2018-06-28T06:31:30.568Z,6.67
2018-06-28T06:33:59.675Z,5.50
2018-06-28T06:36:28.394Z,4.33
2018-06-28T06:38:57.238Z,4.70
2018-06-28T06:41:26.577Z,9.70
2018-06-28T06:43:55.358Z,7.80
2018-06-28T06:46:24.126Z,3.93
2018-06-28T06:48:52.880Z,4.03
2018-06-28T06:51:21.656Z,4.07
2018-06-28T06:53:50.372Z,4.30
2018-06-28T06:56:19.455Z,3.40
2018-06-28T06:58:48.122Z,4.60
2018-06-28T07:01:16.821Z,4.70
2018-06-28T07:03:45.541Z,4.80
2018-06-28T07:06:14.280Z,4.80
2018-06-28T07:08:43.031Z,4.23
2018-06-28T07:11:11.868Z,4.60
2018-06-28T07:13:40.604Z,4.50
2018-06-28T07:16:09.384Z,5.27
2018-06-28T07:18:38.105Z,4.90
2018-06-28T07:21:07.140Z,4.50
2018-06-28T07:23:35.971Z,4.87
2018-06-28T07:26:04.759Z,4.80
2018-06-28T07:28:33.594Z,5.20
2018-06-28T07:31:02.419Z,6.20
2018-06-28T07:33:31.161Z,6.70
2018-06-28T07:36:00.016Z,6.77
2018-06-28T07:38:28.776Z,6.20
2018-06-28T07:40:58.234Z,5.87
2018-06-28T07:43:26.974Z,5.37
2018-06-28T07:45:55.722Z,4.93
2018-06-28T07:48:24.492Z,4.07
2018-06-28T07:50:53.299Z,4.43
2018-06-28T07:53:22.064Z,4.70
2018-06-28T07:55:50.800Z,5.00
2018-06-28T07:58:19.629Z,5.63
2018-06-28T08:00:48.413Z,4.70
2018-06-28T08:03:17.126Z,4.90
2018-06-28T08:05:45.954Z,5.10
2018-06-28T08:08:14.734Z,5.33
2018-06-28T08:10:43.459Z,6.03
2018-06-28T08:13:12.187Z,5.20
2018-06-28T08:15:40.911Z,5.10
2018-06-28T08:18:09.923Z,5.00
2018-06-28T08:20:38.707Z,4.70
2018-06-28T08:23:07.359Z,5.40
2018-06-28T08:25:36.115Z,5.57
2018-06-28T08:28:06.094Z,5.70
2018-06-28T08:30:34.860Z,5.40
2018-06-28T08:33:04.006Z,5.67
2018-06-28T08:35:32.782Z,5.53
2018-06-28T08:38:00.502Z,4.90
2018-06-28T08:40:29.291Z,5.10
2018-06-28T08:42:58.321Z,5.37
2018-06-28T08:45:26.994Z,5.70
2018-06-28T08:47:55.681Z,4.93
2018-06-28T08:50:24.398Z,5.50
2018-06-28T08:52:53.154Z,4.80
2018-06-28T08:55:21.919Z,6.43
2018-06-28T08:57:50.730Z,5.80
2018-06-28T09:00:19.666Z,4.83
2018-06-28T09:02:48.384Z,4.53
2018-06-28T09:05:17.177Z,4.93
2018-06-28T09:07:45.909Z,5.23
2018-06-28T09:10:14.769Z,4.80
2018-06-28T09:12:43.524Z,5.23
2018-06-28T09:15:12.686Z,6.40
2018-06-28T09:17:41.572Z,6.50
2018-06-28T09:20:10.308Z,11.87
2018-06-28T09:22:39.118Z,13.50
2018-06-28T09:25:08.506Z,16.40
2018-06-28T09:27:37.361Z,12.00
2018-06-28T09:30:07.316Z,11.23
2018-06-28T09:32:36.047Z,8.77
2018-06-28T09:35:04.921Z,7.17
2018-06-28T09:37:33.705Z,4.90
2018-06-28T09:40:02.431Z,5.40
2018-06-28T09:42:31.189Z,4.30
2018-06-28T09:44:59.946Z,5.70
2018-06-28T09:47:28.719Z,6.00
2018-06-28T09:49:57.438Z,6.37
2018-06-28T09:52:26.164Z,6.07
2018-06-28T09:54:54.957Z,6.00
2018-06-28T09:57:23.841Z,6.70
2018-06-28T09:59:52.565Z,5.90
2018-06-28T10:02:21.327Z,4.73
2018-06-28T10:04:50.007Z,4.43
2018-06-28T10:07:18.767Z,4.77
2018-06-28T10:09:47.482Z,6.40
2018-06-28T10:12:16.286Z,5.60
2018-06-28T10:14:45.080Z,5.77
2018-06-28T10:17:14.511Z,5.03
2018-06-28T10:19:43.675Z,4.53
2018-06-28T10:22:12.412Z,5.17
2018-06-28T10:24:41.208Z,5.60
2018-06-28T10:27:10.112Z,6.77
2018-06-28T10:29:38.902Z,6.87
2018-06-28T10:32:07.742Z,7.80
2018-06-28T10:34:36.581Z,8.10
2018-06-28T10:37:05.371Z,7.97
2018-06-28T10:39:34.128Z,6.93
2018-06-28T10:42:02.904Z,4.20
2018-06-28T10:44:31.850Z,5.23
2018-06-28T10:47:01.140Z,5.30
2018-06-28T10:49:29.956Z,5.40
2018-06-28T10:51:58.734Z,5.10
2018-06-28T10:54:27.637Z,4.67
2018-06-28T10:56:56.369Z,5.50
2018-06-28T10:59:25.108Z,4.67
2018-06-28T11:01:53.880Z,4.60
2018-06-28T11:04:22.558Z,5.00
2018-06-28T11:06:51.326Z,5.03
2018-06-28T11:09:20.071Z,5.87
2018-06-28T11:11:48.782Z,5.83
2018-06-28T11:14:17.508Z,4.73
2018-06-28T11:16:47.044Z,4.67
2018-06-28T11:19:15.781Z,5.60
2018-06-28T11:21:44.472Z,7.60
2018-06-28T11:24:13.966Z,5.37
2018-06-28T11:26:42.850Z,4.83
2018-06-28T11:29:11.767Z,5.30
2018-06-28T11:31:40.554Z,5.00
2018-06-28T11:34:09.296Z,4.27
2018-06-28T11:36:38.440Z,4.67
2018-06-28T11:39:09.180Z,4.67
2018-06-28T11:41:38.470Z,4.10
2018-06-28T11:44:07.501Z,3.93
2018-06-28T11:46:36.224Z,4.03
2018-06-28T11:49:06.119Z,4.13
2018-06-28T11:51:35.120Z,3.57
2018-06-28T11:54:04.449Z,5.10
2018-06-28T11:56:33.214Z,5.50
2018-06-28T11:59:01.918Z,6.03
2018-06-28T12:01:30.817Z,5.60
2018-06-28T12:03:59.556Z,6.00
2018-06-28T12:06:28.263Z,6.13
2018-06-28T12:08:56.966Z,5.63
2018-06-28T12:11:25.721Z,6.10
2018-06-28T12:13:54.458Z,5.60
2018-06-28T12:16:23.187Z,6.23
2018-06-28T12:18:51.997Z,7.63
2018-06-28T12:21:20.772Z,8.00
2018-06-28T12:23:49.538Z,7.07
2018-06-28T12:26:18.301Z,7.33
2018-06-28T12:28:47.455Z,7.67
2018-06-28T12:31:16.224Z,5.77
2018-06-28T12:33:45.021Z,6.20
2018-06-28T12:36:13.807Z,5.77
2018-06-28T12:38:42.603Z,6.20
2018-06-28T12:41:11.304Z,5.07
2018-06-28T12:43:40.035Z,4.30
2018-06-28T12:46:08.849Z,4.27
2018-06-28T12:48:37.880Z,4.70
2018-06-28T12:51:06.902Z,4.20
2018-06-28T12:53:35.652Z,4.23
2018-06-28T12:56:36.341Z,4.00
2018-06-28T12:59:06.460Z,3.50
2018-06-28T13:01:35.220Z,3.90
2018-06-28T13:04:04.043Z,4.33
2018-06-28T13:06:33.168Z,3.33
2018-06-28T13:09:02.519Z,15.00
2018-06-28T13:11:31.338Z,4.60
2018-06-28T13:14:00.115Z,6.53
2018-06-28T13:16:29.186Z,6.20
2018-06-28T13:18:58.032Z,6.60
2018-06-28T13:21:26.818Z,5.80
2018-06-28T13:23:55.948Z,4.20
2018-06-28T13:26:24.794Z,5.00
2018-06-28T13:28:53.561Z,5.40
2018-06-28T13:31:22.303Z,4.10
2018-06-28T13:33:51.100Z,7.63
2018-06-28T13:36:19.991Z,6.70
2018-06-28T13:38:48.814Z,6.33
2018-06-28T13:41:17.782Z,5.63
2018-06-28T13:48:54.432Z,3.53
2018-06-28T13:51:24.052Z,4.10
2018-06-28T13:53:52.799Z,2.53
2018-06-28T13:56:21.522Z,2.60
2018-06-28T13:58:50.636Z,3.57
2018-06-28T14:01:19.342Z,3.33
2018-06-28T14:03:48.082Z,2.97
2018-06-28T14:06:16.815Z,2.83
2018-06-28T14:08:45.535Z,2.63
2018-06-28T14:11:14.258Z,2.70
2018-06-28T14:13:43.012Z,3.20
2018-06-28T14:16:11.718Z,3.40
2018-06-28T14:18:40.520Z,4.27
2018-06-28T14:21:09.675Z,3.70
2018-06-28T14:23:38.371Z,3.20
2018-06-28T14:26:07.080Z,3.70
2018-06-28T14:28:35.806Z,3.50
2018-06-28T14:31:04.619Z,3.10
2018-06-28T14:33:33.396Z,3.80
2018-06-28T14:36:02.822Z,3.80
2018-06-28T14:38:31.602Z,4.20
2018-06-28T14:41:00.348Z,4.43
2018-06-28T14:43:29.080Z,4.77
2018-06-28T14:45:57.823Z,5.03
2018-06-28T14:48:26.530Z,4.83
2018-06-28T14:50:55.254Z,6.30
2018-06-28T14:53:23.926Z,5.70
2018-06-28T14:55:52.652Z,5.57
2018-06-28T14:58:21.371Z,4.03
2018-06-28T15:00:50.124Z,3.87
2018-06-28T15:03:18.896Z,4.23
2018-06-28T15:05:47.734Z,3.40
2018-06-28T15:08:16.539Z,3.77
2018-06-28T15:10:45.496Z,3.63
2018-06-28T15:13:14.208Z,3.70
2018-06-28T15:15:42.985Z,3.67
2018-06-28T15:18:11.722Z,3.80
2018-06-28T15:20:40.470Z,3.33
2018-06-28T15:23:09.453Z,4.00
2018-06-28T15:25:38.229Z,4.30
2018-06-28T15:28:06.986Z,4.50
2018-06-28T15:30:35.747Z,5.07
2018-06-28T15:33:04.575Z,4.70
2018-06-28T15:35:33.513Z,5.10
2018-06-28T15:38:02.623Z,4.50
2018-06-28T15:40:31.846Z,3.90
2018-06-28T15:43:00.600Z,4.10
2018-06-28T15:45:29.324Z,4.07
2018-06-28T15:47:58.053Z,5.10
2018-06-28T15:50:26.849Z,5.30
2018-06-28T15:52:55.557Z,5.23
2018-06-28T15:55:24.333Z,5.07
2018-06-28T15:57:53.109Z,5.47
2018-06-28T16:00:21.877Z,9.30
2018-06-28T16:02:50.677Z,5.80
2018-06-28T16:05:19.567Z,7.93
2018-06-28T16:07:48.337Z,5.90
2018-06-28T16:10:17.146Z,6.00
2018-06-28T16:12:45.907Z,4.93
2018-06-28T16:15:14.663Z,4.70
2018-06-28T16:17:43.376Z,4.43
2018-06-28T16:20:12.420Z,3.90
2018-06-28T16:22:41.393Z,3.50
2018-06-28T16:25:10.687Z,3.63
2018-06-28T16:27:40.132Z,4.13
2018-06-28T16:30:09.388Z,3.90
2018-06-28T16:32:38.192Z,4.60
2018-06-28T16:35:06.963Z,3.63
2018-06-28T16:37:35.642Z,4.40
2018-06-28T16:40:04.463Z,4.03
2018-06-28T16:42:33.207Z,3.60
2018-06-28T16:45:02.010Z,4.30
2018-06-28T16:47:30.726Z,4.30
2018-06-28T16:49:59.823Z,3.83
2018-06-28T16:52:31.044Z,4.00
2018-06-28T16:54:59.875Z,3.87
2018-06-28T16:57:28.641Z,6.33
2018-06-28T16:59:57.376Z,5.37
2018-06-28T17:02:26.093Z,4.17
2018-06-28T17:04:54.865Z,4.37
2018-06-28T17:07:23.618Z,6.20
2018-06-28T17:09:52.629Z,4.80
2018-06-28T17:12:21.422Z,5.17
2018-06-28T17:14:50.164Z,4.80
2018-06-28T17:17:18.997Z,5.27
2018-06-28T17:19:47.774Z,5.10
2018-06-28T17:22:16.503Z,5.77
2018-06-28T17:24:45.305Z,5.77
2018-06-28T17:27:14.006Z,6.17
2018-06-28T17:29:43.174Z,6.60
2018-06-28T17:32:11.895Z,7.10
2018-06-28T17:34:40.708Z,7.70
2018-06-28T17:37:09.440Z,9.10
2018-06-28T17:39:38.174Z,11.90
2018-06-28T17:42:06.922Z,8.87
2018-06-28T17:44:35.608Z,8.63
2018-06-28T17:47:04.488Z,10.33
2018-06-28T17:49:33.365Z,10.97
2018-06-28T17:52:02.269Z,10.57
2018-06-28T17:54:31.105Z,11.40
2018-06-28T17:56:59.906Z,11.43
2018-06-28T17:59:28.716Z,12.63
2018-06-28T18:01:57.468Z,12.37
2018-06-28T18:04:26.309Z,13.30
2018-06-28T18:06:55.027Z,12.50
2018-06-28T18:09:24.592Z,13.63
2018-06-28T18:11:53.319Z,12.50
2018-06-28T18:14:22.750Z,11.13
2018-06-28T18:16:51.901Z,11.43
2018-06-28T18:19:20.630Z,10.90
2018-06-28T18:21:49.454Z,10.37
2018-06-28T18:24:18.283Z,10.73
2018-06-28T18:26:47.034Z,11.37
2018-06-28T18:29:15.759Z,11.03
2018-06-28T18:31:44.687Z,10.67
2018-06-28T18:34:13.950Z,10.90
2018-06-28T18:36:42.687Z,11.60
2018-06-28T18:39:11.794Z,10.77
2018-06-28T18:41:41.150Z,11.47
2018-06-28T18:44:09.890Z,12.80
2018-06-28T18:46:38.661Z,11.07
2018-06-28T18:49:07.449Z,10.77
2018-06-28T18:51:36.254Z,10.50
2018-06-28T18:54:05.075Z,10.30
2018-06-28T18:56:34.025Z,9.63
2018-06-28T18:59:03.215Z,10.90
2018-06-28T19:01:32.445Z,9.93
2018-06-28T19:04:01.308Z,10.50
2018-06-28T19:06:30.036Z,10.40
2018-06-28T19:08:59.264Z,10.73
2018-06-28T19:11:28.029Z,10.10
2018-06-28T19:14:02.004Z,10.67
2018-06-28T19:16:36.375Z,9.90
2018-06-28T19:19:05.422Z,10.10
2018-06-28T19:21:39.661Z,9.90
2018-06-28T19:24:08.764Z,9.30
2018-06-28T19:26:39.074Z,10.30
2018-06-28T19:29:14.415Z,9.50
2018-06-28T19:32:46.488Z,9.53
2018-06-28T19:35:15.461Z,10.03
2018-06-28T19:37:51.056Z,9.67
2018-06-28T19:40:25.315Z,9.50
2018-06-28T19:42:57.102Z,8.73
2018-06-28T19:45:26.200Z,9.70
2018-06-28T19:47:55.039Z,10.77
2018-06-28T19:50:29.315Z,11.23
2018-06-28T19:53:01.929Z,10.80
2018-06-28T19:55:30.654Z,9.80
2018-06-28T19:57:59.780Z,10.70
2018-06-28T20:00:33.766Z,11.00
2018-06-28T20:03:07.690Z,11.30
2018-06-28T20:05:36.528Z,10.03
2018-06-28T20:08:05.306Z,10.57
2018-06-28T20:10:34.314Z,10.50
2018-06-28T20:13:08.392Z,10.00
2018-06-28T20:15:55.474Z,9.40
2018-06-28T20:18:29.713Z,10.17
2018-06-28T20:20:59.803Z,9.50
2018-06-28T20:23:28.791Z,10.93
2018-06-28T20:25:57.833Z,9.27
2018-06-28T20:28:31.850Z,8.77
2018-06-28T20:31:05.832Z,9.17
2018-06-28T20:33:46.362Z,8.23
2018-06-28T20:36:15.090Z,8.53
2018-06-28T20:38:43.780Z,8.30
2018-06-28T20:41:12.497Z,8.53
2018-06-28T20:43:41.582Z,9.03
2018-06-28T20:46:10.542Z,8.90
2018-06-28T20:48:39.302Z,9.00
2018-06-28T20:51:08.134Z,8.67
2018-06-28T20:53:36.879Z,8.23
2018-06-28T20:56:05.993Z,7.87
2018-06-28T20:58:37.361Z,8.77
2018-06-28T21:01:07.110Z,9.23
2018-06-28T21:03:35.893Z,9.10
2018-06-28T21:06:05.058Z,8.93
2018-06-28T21:08:33.761Z,9.83
2018-06-28T21:11:02.586Z,9.67
2018-06-28T21:13:31.331Z,10.50
2018-06-28T21:16:00.196Z,10.97
2018-06-28T21:18:28.956Z,11.50
2018-06-28T21:20:57.768Z,11.47
2018-06-28T21:23:26.551Z,10.77
2018-06-28T21:25:55.453Z,11.53
2018-06-28T21:28:24.185Z,11.80
2018-06-28T21:30:52.925Z,11.93
2018-06-28T21:33:21.658Z,12.53
2018-06-28T21:35:50.698Z,12.77
2018-06-28T21:38:19.421Z,12.27
2018-06-28T21:40:48.178Z,11.90
2018-06-28T21:43:16.913Z,12.30
2018-06-28T21:45:45.670Z,12.77
2018-06-28T21:48:14.450Z,12.67
2018-06-28T21:50:43.359Z,12.90
2018-06-28T21:53:12.894Z,13.20
2018-06-28T21:55:41.630Z,13.47
2018-06-28T21:58:10.408Z,12.77
2018-06-28T22:00:39.347Z,13.63
2018-06-28T22:03:09.125Z,14.37
2018-06-28T22:05:37.947Z,13.77
2018-06-28T22:08:07.194Z,12.47
2018-06-28T22:10:36.067Z,13.60
2018-06-28T22:13:04.854Z,13.27
2018-06-28T22:15:33.730Z,12.30
2018-06-28T22:18:03.823Z,13.13
2018-06-28T22:20:33.501Z,12.97
2018-06-28T22:23:02.246Z,12.23
2018-06-28T22:25:31.900Z,12.47
2018-06-28T22:28:00.673Z,12.50
2018-06-28T22:30:29.478Z,10.60
2018-06-28T22:32:58.189Z,11.70
2018-06-28T22:35:26.911Z,11.47
2018-06-28T22:37:55.629Z,11.50
2018-06-28T22:40:24.444Z,11.87
2018-06-28T22:42:53.289Z,10.70
2018-06-28T22:45:22.082Z,10.60
2018-06-28T22:47:50.803Z,11.23
2018-06-28T22:50:19.634Z,10.53
2018-06-28T22:52:48.494Z,9.73
2018-06-28T22:55:17.169Z,10.17
2018-06-28T22:57:45.917Z,10.10
2018-06-28T23:00:21.049Z,10.63
2018-06-28T23:02:49.805Z,10.13
2018-06-28T23:05:18.577Z,10.67
2018-06-28T23:07:47.329Z,11.17
2018-06-28T23:10:16.061Z,9.57
2018-06-28T23:12:44.789Z,10.53
2018-06-28T23:15:13.604Z,11.70
2018-06-28T23:17:42.653Z,10.47
2018-06-28T23:20:11.385Z,10.77
2018-06-28T23:22:46.071Z,10.27
2018-06-28T23:25:15.447Z,10.13
2018-06-28T23:27:45.142Z,9.73
2018-06-28T23:30:14.597Z,9.60
2018-06-28T23:32:43.694Z,9.83
2018-06-28T23:35:12.495Z,9.53
2018-06-28T23:37:41.234Z,8.13
2018-06-28T23:40:10.417Z,9.10
2018-06-28T23:42:39.612Z,8.53
2018-06-28T23:45:09.042Z,8.33
2018-06-28T23:47:37.848Z,8.10
2018-06-28T23:50:07.923Z,7.47
2018-06-28T23:52:36.658Z,7.87
2018-06-28T23:55:06.160Z,6.93
2018-06-28T23:57:34.953Z,7.33
